Time;durP1;ratioP1;P1;durP2;ratioP2;P2;SDS_P1;SDS_P2;PMS_P1;PMS_P2;Temp;Humidity;BMP_temperature;BMP_pressure;BME280_temperature;BME280_humidity;BME280_pressure;Samples;Min_cycle;Max_cycle;Signal;HPM_P1;HPM_P2
2022/04/28 00:01:24;;;;;;;6.22;2.08;;;;;;;8.25;63.78;103064.72;4973293;28;97643;-34
2022/04/28 00:03:50;;;;;;;1.45;1.25;;;;;;;8.27;63.93;103067.38;4972978;28;116863;-35
2022/04/28 00:06:15;;;;;;;4.68;1.08;;;;;;;8.21;64.02;103060.28;4973674;28;97023;-35
2022/04/28 00:08:40;;;;;;;1.83;1.05;;;;;;;8.13;63.94;103043.34;4972394;28;120389;-35
2022/04/28 00:11:06;;;;;;;2.65;1.38;;;;;;;8.12;64.38;103036.13;4973033;28;96700;-34
2022/04/28 00:13:34;;;;;;;3.25;1.90;;;;;;;8.12;63.71;103051.44;4973688;28;96795;-35
2022/04/28 00:15:59;;;;;;;2.60;1.45;;;;;;;8.09;63.49;103049.69;4971133;28;126672;-35
2022/04/28 00:18:25;;;;;;;3.58;1.58;;;;;;;8.13;64.19;103059.53;4973497;28;116460;-35
2022/04/28 00:20:50;;;;;;;11.05;1.80;;;;;;;8.07;64.07;103056.91;4973537;28;96679;-35
2022/04/28 00:23:15;;;;;;;4.72;1.92;;;;;;;8.12;64.39;103054.13;4972227;28;122848;-35
2022/04/28 00:25:40;;;;;;;1.75;1.30;;;;;;;8.03;63.68;103047.97;4972706;28;101710;-35
2022/04/28 00:28:06;;;;;;;5.85;1.90;;;;;;;8.02;64.19;103051.59;4971676;28;126573;-35
2022/04/28 00:30:31;;;;;;;7.13;2.13;;;;;;;8.07;64.03;103060.50;4973102;28;101968;-35
2022/04/28 00:32:56;;;;;;;2.30;1.50;;;;;;;8.05;62.98;103056.94;4973399;28;96836;-34
2022/04/28 00:35:21;;;;;;;3.20;1.70;;;;;;;7.98;65.17;103049.84;4971860;28;127039;-35
2022/04/28 00:37:47;;;;;;;2.67;1.50;;;;;;;8.02;64.73;103056.97;4972322;28;121965;-35
2022/04/28 00:40:12;;;;;;;3.03;1.95;;;;;;;7.97;64.48;103050.75;4973274;28;96694;-35
2022/04/28 00:42:37;;;;;;;4.13;2.22;;;;;;;7.98;64.02;103052.53;4973618;28;96777;-35
2022/04/28 00:45:04;;;;;;;4.53;2.08;;;;;;;7.96;63.94;103051.69;4973026;28;99529;-35
2022/04/28 00:50:41;;;;;;;2.05;1.52;;;;;;;7.90;64.21;103043.69;4972561;28;96525;-34
2022/04/28 00:53:12;;;;;;;7.00;1.83;;;;;;;7.93;64.54;103050.84;4973209;28;96597;-35
2022/04/28 00:55:38;;;;;;;2.00;1.67;;;;;;;7.93;63.97;103056.22;4972863;28;99327;-34
2022/04/28 00:58:04;;;;;;;3.38;1.70;;;;;;;7.81;63.90;103042.00;4972911;28;97934;-34
2022/04/28 01:00:29;;;;;;;2.65;1.58;;;;;;;7.78;64.11;103047.44;4972582;28;96644;-34
2022/04/28 01:02:54;;;;;;;2.50;1.65;;;;;;;7.82;64.85;103056.41;4972562;28;112571;-35
2022/04/28 01:05:20;;;;;;;3.10;1.77;;;;;;;7.79;64.19;103043.81;4972085;28;126607;-35
2022/04/28 01:07:45;;;;;;;3.40;1.73;;;;;;;7.84;64.76;103044.66;4972840;28;97198;-35
2022/04/28 01:10:10;;;;;;;7.57;1.80;;;;;;;7.84;64.14;103047.38;4972015;28;118357;-34
2022/04/28 01:12:36;;;;;;;2.83;1.58;;;;;;;7.79;63.89;103033.03;4972071;28;112458;-34
2022/04/28 01:15:02;;;;;;;3.83;1.85;;;;;;;7.80;64.41;103033.94;4972050;28;97863;-35
2022/04/28 01:17:27;;;;;;;4.30;1.77;;;;;;;7.70;63.04;103022.41;4971332;28;98917;-35
2022/04/28 01:19:52;;;;;;;2.70;1.60;;;;;;;7.78;63.71;103042.06;4972209;28;117128;-34
2022/04/28 01:22:17;;;;;;;2.33;1.75;;;;;;;7.75;64.62;103046.63;4970226;28;120621;-35
2022/04/28 01:24:42;;;;;;;3.40;1.75;;;;;;;7.68;64.00;103039.53;4971647;28;127269;-35
2022/04/28 01:27:08;;;;;;;4.88;1.80;;;;;;;7.63;63.90;103042.28;4971710;28;123973;-35
2022/04/28 01:29:34;;;;;;;1.63;1.23;;;;;;;7.61;65.17;103045.00;4971017;28;96781;-34
2022/04/28 01:32:00;;;;;;;4.20;2.08;;;;;;;7.58;65.07;103045.03;4971407;28;96866;-34
2022/04/28 01:34:26;;;;;;;6.53;2.15;;;;;;;7.57;63.98;103048.63;4970801;28;100863;-35
2022/04/28 01:36:51;;;;;;;3.25;1.75;;;;;;;7.59;64.45;103054.00;4972317;28;97879;-34
2022/04/28 01:39:17;;;;;;;6.03;1.83;;;;;;;7.56;64.37;103054.94;4970950;28;96665;-35
2022/04/28 01:41:42;;;;;;;4.78;1.75;;;;;;;7.55;64.19;103057.66;4972014;28;96825;-35
2022/04/28 01:44:08;;;;;;;2.60;1.67;;;;;;;7.50;63.97;103051.44;4971867;28;99501;-34
2022/04/28 01:46:33;;;;;;;6.47;1.27;;;;;;;7.50;65.64;103044.22;4972247;28;97428;-35
2022/04/28 01:48:59;;;;;;;3.10;1.75;;;;;;;7.58;64.75;103050.44;4972367;28;96937;-35
2022/04/28 01:56:52;;;;;;;1.77;1.27;;;;;;;7.56;64.38;103057.66;4972574;28;96966;-35
2022/04/28 01:59:17;;;;;;;3.00;1.60;;;;;;;7.55;64.69;103049.56;4971420;28;121828;-35
2022/04/28 02:01:42;;;;;;;2.90;1.63;;;;;;;7.58;64.76;103054.91;4972405;28;96885;-35
2022/04/28 02:04:08;;;;;;;3.45;1.55;;;;;;;7.53;65.26;103049.59;4970601;28;120624;-35
2022/04/28 02:06:33;;;;;;;3.63;2.25;;;;;;;7.51;64.62;103042.41;4970860;28;122516;-35
2022/04/28 02:08:59;;;;;;;9.63;1.63;;;;;;;7.47;64.66;103040.69;4971181;28;121879;-35
2022/04/28 02:11:25;;;;;;;3.05;1.65;;;;;;;7.44;65.40;103042.53;4970504;28;96866;-35
2022/04/28 02:13:50;;;;;;;2.83;1.65;;;;;;;7.36;64.83;103043.53;4971704;28;104271;-35
2022/04/28 02:16:15;;;;;;;3.20;1.98;;;;;;;7.33;64.84;103054.34;4971146;28;122030;-35
2022/04/28 02:18:41;;;;;;;3.38;1.83;;;;;;;7.40;65.78;103061.44;4972277;28;96577;-34
2022/04/28 02:21:06;;;;;;;3.13;1.85;;;;;;;7.34;65.12;103058.81;4971468;28;121343;-35
2022/04/28 02:23:31;;;;;;;3.63;1.55;;;;;;;7.40;64.66;103064.16;4971920;28;97381;-35
2022/04/28 02:25:56;;;;;;;4.80;1.67;;;;;;;7.38;65.07;103065.97;4970713;28;124358;-35
2022/04/28 02:28:22;;;;;;;3.15;1.60;;;;;;;7.38;65.17;103063.28;4970768;28;117644;-35
2022/04/28 02:30:47;;;;;;;4.75;2.08;;;;;;;7.34;64.64;103051.66;4970854;28;120803;-35
2022/04/28 02:33:13;;;;;;;2.55;1.55;;;;;;;7.35;64.59;103055.22;4970903;28;120401;-35
2022/04/28 02:35:39;;;;;;;4.47;1.70;;;;;;;7.39;65.51;103054.28;4970341;28;100897;-35
2022/04/28 02:38:05;;;;;;;2.47;1.58;;;;;;;7.32;64.79;103042.69;4971988;28;96561;-35
2022/04/28 02:40:31;;;;;;;4.70;1.80;;;;;;;7.38;65.39;103049.78;4970362;28;96852;-35
2022/04/28 02:42:56;;;;;;;3.20;1.55;;;;;;;7.33;65.20;103041.75;4971602;28;97843;-35
2022/04/28 02:45:22;;;;;;;2.72;1.70;;;;;;;7.29;64.87;103036.44;4971642;28;99193;-35
2022/04/28 02:47:47;;;;;;;3.00;1.80;;;;;;;7.30;64.99;103040.91;4971804;28;96467;-35
2022/04/28 02:50:12;;;;;;;6.18;2.35;;;;;;;7.34;65.23;103056.13;4969274;28;121449;-35
2022/04/28 02:52:38;;;;;;;2.85;1.65;;;;;;;7.26;65.44;103047.25;4974048;28;97705;-35
2022/04/28 02:55:04;;;;;;;3.03;1.23;;;;;;;7.26;65.37;103056.22;4974576;28;97999;-35
2022/04/28 02:57:30;;;;;;;3.05;1.55;;;;;;;7.27;65.45;103055.34;4973416;28;97454;-35
2022/04/28 02:59:55;;;;;;;2.40;1.50;;;;;;;7.17;65.71;103043.75;4974599;28;96800;-35
2022/04/28 03:02:20;;;;;;;6.93;2.05;;;;;;;7.22;65.81;103062.56;4974126;28;113390;-35
2022/04/28 03:04:46;;;;;;;2.60;1.80;;;;;;;7.14;66.10;103041.09;4974362;28;105286;-35
2022/04/28 03:12:38;;;;;;;4.97;1.90;;;;;;;7.12;65.72;103044.72;4974156;28;97065;-35
2022/04/28 03:15:06;;;;;;;2.83;1.75;;;;;;;7.13;66.58;103049.22;4974316;28;97396;-35
2022/04/28 03:17:31;;;;;;;2.67;1.65;;;;;;;7.07;66.02;103044.78;4973811;28;96581;-35
2022/04/28 03:19:57;;;;;;;2.65;1.23;;;;;;;7.10;66.14;103042.03;4973271;28;121541;-35
2022/04/28 03:22:22;;;;;;;4.88;2.15;;;;;;;7.09;66.17;103051.03;4973309;28;126877;-35
2022/04/28 03:24:47;;;;;;;2.47;1.50;;;;;;;7.02;65.32;103038.53;4974056;28;99210;-35
2022/04/28 03:27:13;;;;;;;3.78;2.00;;;;;;;7.06;66.31;103045.69;4973200;28;96583;-35
2022/04/28 03:29:38;;;;;;;2.45;1.30;;;;;;;7.04;65.90;103050.19;4973521;28;121759;-35
2022/04/28 03:32:04;;;;;;;4.40;1.58;;;;;;;6.98;67.02;103044.88;4974258;28;96994;-35
2022/04/28 03:34:30;;;;;;;3.13;1.60;;;;;;;6.96;66.31;103044.00;4972834;28;99299;-35
2022/04/28 03:36:55;;;;;;;2.65;1.70;;;;;;;7.03;66.01;103061.88;4973586;28;113662;-35
2022/04/28 03:39:20;;;;;;;5.55;1.73;;;;;;;7.01;65.82;103052.94;4974444;28;96798;-35
2022/04/28 03:41:46;;;;;;;2.70;1.52;;;;;;;6.98;66.70;103052.94;4973674;28;98015;-35
2022/04/28 03:44:11;;;;;;;4.13;1.92;;;;;;;6.89;66.37;103042.28;4974085;28;97806;-35
2022/04/28 03:46:37;;;;;;;1.00;0.95;;;;;;;6.90;66.33;103041.38;4973557;28;112493;-35
2022/04/28 03:49:03;;;;;;;3.88;1.60;;;;;;;6.93;66.38;103052.13;4974085;28;96803;-34
2022/04/28 03:51:28;;;;;;;2.38;1.30;;;;;;;6.94;66.88;103052.09;4972525;28;101083;-35
2022/04/28 03:53:54;;;;;;;1.92;1.40;;;;;;;6.96;67.42;103057.47;4973428;28;99209;-35
2022/04/28 03:56:19;;;;;;;2.28;1.38;;;;;;;6.89;66.44;103045.88;4973830;28;96444;-35
2022/04/28 03:58:45;;;;;;;3.28;1.55;;;;;;;6.95;66.25;103053.00;4974494;28;96912;-35
2022/04/28 04:01:10;;;;;;;3.13;1.58;;;;;;;6.90;67.03;103061.13;4973482;28;99200;-35
2022/04/28 04:03:36;;;;;;;2.38;1.35;;;;;;;6.87;66.56;103054.88;4972425;28;99144;-35
2022/04/28 04:06:01;;;;;;;2.08;1.25;;;;;;;6.87;67.63;103055.78;4973559;28;96544;-34
2022/04/28 04:08:26;;;;;;;3.67;1.83;;;;;;;6.75;66.07;103043.31;4973402;28;96897;-35
2022/04/28 04:10:51;;;;;;;2.92;1.70;;;;;;;6.80;66.87;103046.84;4972878;28;98956;-34
2022/04/28 04:13:17;;;;;;;3.83;1.98;;;;;;;6.73;65.85;103044.25;4972337;28;128239;-35
2022/04/28 04:15:42;;;;;;;2.03;1.27;;;;;;;6.78;66.80;103058.56;4973759;28;96425;-35
2022/04/28 04:18:08;;;;;;;2.47;1.27;;;;;;;6.76;66.42;103058.56;4971758;28;104362;-35
2022/04/28 04:20:34;;;;;;;2.78;1.33;;;;;;;6.72;66.83;103058.59;4972043;28;99372;-35
2022/04/28 04:23:04;;;;;;;2.70;1.52;;;;;;;6.74;67.80;103062.19;4973127;28;96552;-35
2022/04/28 04:25:29;;;;;;;3.50;1.98;;;;;;;6.65;66.59;103040.72;4972024;28;96573;-35
2022/04/28 04:27:54;;;;;;;4.00;2.15;;;;;;;6.59;66.37;103041.69;4973282;28;96815;-35
2022/04/28 04:33:03;;;;;;;2.17;1.48;;;;;;;6.63;67.11;103053.34;4973143;28;97008;-35
2022/04/28 04:35:28;;;;;;;2.95;1.58;;;;;;;6.64;66.43;103063.19;4973220;28;96620;-35
2022/04/28 04:37:54;;;;;;;4.32;2.08;;;;;;;6.66;67.18;103064.06;4972412;28;121494;-35
2022/04/28 04:40:20;;;;;;;2.85;1.65;;;;;;;6.64;67.50;103064.06;4971604;28;100724;-35
2022/04/28 04:42:46;;;;;;;4.47;1.52;;;;;;;6.61;66.69;103063.22;4973193;28;97856;-35
2022/04/28 04:45:11;;;;;;;2.67;1.58;;;;;;;6.66;66.74;103080.22;4973689;28;96557;-35
2022/04/28 04:47:37;;;;;;;1.42;1.15;;;;;;;6.66;68.02;103072.16;4973303;28;96800;-35
2022/04/28 04:50:04;;;;;;;2.15;1.38;;;;;;;6.65;67.69;103081.13;4971600;28;100923;-35
2022/04/28 04:52:38;;;;;;;4.07;1.70;;;;;;;6.62;68.18;103081.16;4971356;28;102497;-35
2022/04/28 04:55:04;;;;;;;5.80;1.73;;;;;;;6.63;67.97;103096.44;4971678;28;123642;-35
2022/04/28 04:57:29;;;;;;;2.88;1.65;;;;;;;6.63;67.16;103091.94;4973047;28;96758;-35
2022/04/28 04:59:55;;;;;;;1.88;1.45;;;;;;;6.70;67.14;103095.47;4972171;28;114674;-35
2022/04/28 05:02:20;;;;;;;2.22;1.38;;;;;;;6.71;66.22;103100.81;4972924;28;97848;-35
2022/04/28 05:04:46;;;;;;;2.80;1.48;;;;;;;6.72;66.20;103104.38;4972650;28;96533;-35
2022/04/28 05:07:11;;;;;;;3.60;1.83;;;;;;;6.69;66.61;103105.31;4972199;28;96793;-35
2022/04/28 05:09:37;;;;;;;3.90;1.88;;;;;;;6.63;66.36;103091.94;4973044;28;97311;-35
2022/04/28 05:12:04;;;;;;;2.60;1.70;;;;;;;6.66;67.23;103105.34;4972646;28;97273;-35
2022/04/28 05:14:30;;;;;;;1.20;1.05;;;;;;;6.57;67.38;103098.22;4970817;28;96722;-34
2022/04/28 05:16:57;;;;;;;2.15;1.10;;;;;;;6.67;68.19;103106.25;4972758;28;96895;-34
2022/04/28 05:19:23;;;;;;;2.55;1.35;;;;;;;6.65;66.81;103108.03;4972142;28;97405;-34
2022/04/28 05:21:48;;;;;;;4.68;1.40;;;;;;;6.69;66.70;103109.81;4972653;28;97842;-34
2022/04/28 05:24:13;;;;;;;7.43;1.48;;;;;;;6.74;65.88;103122.31;4970327;28;121078;-34
2022/04/28 05:26:39;;;;;;;3.30;1.52;;;;;;;6.76;67.11;103130.41;4972659;28;96813;-35
2022/04/28 05:29:04;;;;;;;2.17;1.17;;;;;;;6.81;66.14;103137.53;4971093;28;127898;-35
2022/04/28 05:31:29;;;;;;;3.08;1.40;;;;;;;6.74;65.67;103114.25;4972398;28;98229;-35
2022/04/28 05:33:55;;;;;;;1.80;1.45;;;;;;;6.88;66.78;103130.28;4972541;28;96631;-34
2022/04/28 05:36:21;;;;;;;4.68;2.35;;;;;;;6.88;65.78;103130.28;4972014;28;122078;-34
2022/04/28 05:38:46;;;;;;;1.65;1.25;;;;;;;6.91;66.73;103142.84;4972236;28;99286;-34
2022/04/28 05:41:12;;;;;;;3.60;1.85;;;;;;;6.86;66.66;103134.78;4972288;28;97822;-35
2022/04/28 05:46:21;;;;;;;2.92;1.67;;;;;;;6.97;65.30;103143.66;4972568;28;96530;-34
2022/04/28 05:48:47;;;;;;;4.25;1.70;;;;;;;6.98;65.61;103158.94;4972366;28;97796;-34
2022/04/28 05:51:13;;;;;;;3.00;1.65;;;;;;;7.12;65.70;103161.47;4970644;28;100774;-34
2022/04/28 05:53:39;;;;;;;2.80;1.70;;;;;;;7.19;64.81;103159.63;4971496;28;115746;-34
2022/04/28 05:56:05;;;;;;;4.03;1.77;;;;;;;7.20;65.66;103156.94;4970825;28;96814;-35
2022/04/28 05:58:32;;;;;;;5.38;1.88;;;;;;;7.21;65.42;103166.78;4972094;28;98154;-34
2022/04/28 06:00:58;;;;;;;2.65;1.63;;;;;;;7.31;65.07;103175.66;4972371;28;99238;-34
2022/04/28 06:03:23;;;;;;;4.13;2.10;;;;;;;7.37;65.07;103177.44;4970909;28;96592;-34
2022/04/28 06:05:48;;;;;;;6.90;1.73;;;;;;;7.41;64.73;103182.78;4971191;28;121760;-34
2022/04/28 06:08:13;;;;;;;3.30;1.95;;;;;;;7.51;64.48;103186.25;4970489;28;126901;-34
2022/04/28 06:10:39;;;;;;;1.48;1.13;;;;;;;7.50;64.29;103178.19;4971485;28;110958;-33
2022/04/28 06:13:04;;;;;;;6.20;1.73;;;;;;;7.71;63.91;103194.13;4971600;28;96678;-33
2022/04/28 06:15:29;;;;;;;2.53;1.58;;;;;;;7.75;63.67;103192.28;4972110;28;96732;-34
2022/04/28 06:17:55;;;;;;;1.85;1.55;;;;;;;7.85;63.79;103186.75;4969611;28;98852;-35
2022/04/28 06:20:20;;;;;;;4.05;1.70;;;;;;;7.89;63.48;103182.22;4971545;28;97480;-35
2022/04/28 06:22:46;;;;;;;5.00;1.45;;;;;;;7.99;63.50;103183.00;4972132;28;96543;-35
2022/04/28 06:25:11;;;;;;;1.77;1.30;;;;;;;8.08;63.10;103185.56;4971713;28;96959;-34
2022/04/28 06:27:37;;;;;;;2.30;1.50;;;;;;;8.16;62.93;103194.44;4973429;28;99329;-35
2022/04/28 06:30:04;;;;;;;3.03;1.40;;;;;;;8.29;62.42;103193.38;4975058;28;99084;-35
2022/04/28 06:32:29;;;;;;;3.95;1.90;;;;;;;8.35;62.45;103191.50;4972854;28;98314;-35
2022/04/28 06:34:54;;;;;;;6.55;1.80;;;;;;;8.45;61.95;103202.16;4973458;28;97366;-35
2022/04/28 06:37:20;;;;;;;3.38;1.63;;;;;;;8.56;62.17;103196.63;4974098;28;99176;-35
2022/04/28 06:39:45;;;;;;;2.42;1.77;;;;;;;8.78;61.50;103213.38;4974319;28;97828;-35
2022/04/28 06:42:10;;;;;;;4.05;2.05;;;;;;;8.97;61.20;103207.69;4973560;28;120454;-35
2022/04/28 06:44:36;;;;;;;2.28;1.27;;;;;;;9.10;61.20;103225.44;4974358;28;96812;-36
2022/04/28 06:47:07;;;;;;;8.27;1.92;;;;;;;9.26;61.00;103212.56;4974302;28;112798;-35
2022/04/28 06:49:34;;;;;;;2.93;1.43;;;;;;;9.47;60.28;103217.59;4973927;28;100711;-35
2022/04/28 06:52:00;;;;;;;1.98;1.23;;;;;;;9.65;59.89;103215.44;4973534;28;96653;-35
2022/04/28 06:54:25;;;;;;;4.88;1.58;;;;;;;9.84;59.38;103227.69;4972982;28;96856;-35
2022/04/28 06:56:51;;;;;;;2.10;1.65;;;;;;;9.94;59.36;103223.88;4974109;28;99261;-35
2022/04/28 06:59:16;;;;;;;3.75;1.52;;;;;;;10.04;58.85;103223.69;4974635;28;99349;-35
2022/04/28 07:01:41;;;;;;;4.22;1.27;;;;;;;10.21;59.00;103225.09;4974588;28;96503;-35
2022/04/28 07:04:07;;;;;;;2.72;1.60;;;;;;;10.27;58.61;103215.06;4974595;28;96895;-35
2022/04/28 07:06:32;;;;;;;3.58;1.52;;;;;;;10.46;58.38;103234.53;4974584;28;97418;-35
2022/04/28 07:08:57;;;;;;;3.58;1.83;;;;;;;10.54;58.13;103236.16;4974245;28;98787;-35
2022/04/28 07:11:24;;;;;;;3.35;1.92;;;;;;;10.56;57.88;103226.16;4974002;28;96568;-35
2022/04/28 07:13:49;;;;;;;6.25;2.17;;;;;;;10.68;57.59;103233.13;4975060;28;96749;-35
2022/04/28 07:16:15;;;;;;;2.22;1.15;;;;;;;10.88;57.43;103248.91;4974404;28;98968;-35
2022/04/28 07:18:40;;;;;;;5.93;1.80;;;;;;;10.99;57.06;103230.56;4973432;28;124577;-35
2022/04/28 07:21:05;;;;;;;4.15;1.85;;;;;;;11.02;56.92;103244.03;4973228;28;118249;-35
2022/04/28 07:23:31;;;;;;;4.88;1.67;;;;;;;11.12;56.61;103241.09;4974534;28;96764;-35
2022/04/28 07:25:56;;;;;;;2.70;1.85;;;;;;;11.26;56.27;103238.91;4974227;28;96690;-35
2022/04/28 07:28:22;;;;;;;2.08;1.20;;;;;;;11.35;56.38;103252.25;4974459;28;97838;-35
2022/04/28 07:30:47;;;;;;;3.17;1.80;;;;;;;11.48;55.98;103248.25;4974386;28;96572;-35
2022/04/28 07:33:12;;;;;;;2.22;1.40;;;;;;;11.55;55.88;103238.13;4974385;28;96839;-35
2022/04/28 07:35:38;;;;;;;2.70;1.02;;;;;;;11.53;55.00;103245.41;4974011;28;99290;-35
2022/04/28 07:38:04;;;;;;;1.35;0.90;;;;;;;11.59;55.48;103250.69;4973313;28;97835;-35
2022/04/28 07:40:30;;;;;;;2.97;1.27;;;;;;;11.71;55.60;103254.91;4973897;28;96626;-35
2022/04/28 07:42:56;;;;;;;5.05;1.90;;;;;;;11.89;55.48;103262.56;4974034;28;96839;-35
2022/04/28 07:45:22;;;;;;;2.40;1.17;;;;;;;12.03;55.20;103258.56;4973629;28;97439;-35
2022/04/28 07:47:49;;;;;;;4.25;1.65;;;;;;;12.29;54.94;103261.38;4972503;28;101480;-35
2022/04/28 07:50:15;;;;;;;6.28;1.63;;;;;;;12.46;54.65;103270.88;4972726;28;96647;-34
2022/04/28 07:52:40;;;;;;;2.45;1.42;;;;;;;12.42;54.62;103274.59;4973786;28;96665;-36
2022/04/28 07:55:06;;;;;;;7.10;1.95;;;;;;;12.49;54.08;103268.06;4973714;28;98006;-35
2022/04/28 07:57:32;;;;;;;3.08;1.30;;;;;;;12.52;53.22;103271.56;4972305;28;102066;-35
2022/04/28 07:59:57;;;;;;;3.92;1.33;;;;;;;12.57;53.26;103268.72;4973671;28;96626;-35
2022/04/28 08:02:23;;;;;;;6.75;1.40;;;;;;;12.65;52.82;103257.59;4974027;28;96904;-35
2022/04/28 08:04:48;;;;;;;2.60;1.45;;;;;;;12.87;53.16;103275.03;4973705;28;98512;-35
2022/04/28 08:07:14;;;;;;;4.47;1.50;;;;;;;12.99;52.41;103271.00;4973182;28;99187;-35
2022/04/28 08:09:39;;;;;;;2.83;1.17;;;;;;;13.03;52.34;103261.78;4972965;28;96783;-35
2022/04/28 08:12:06;;;;;;;7.25;1.30;;;;;;;13.16;52.35;103274.06;4972847;28;102458;-35
2022/04/28 08:14:32;;;;;;;4.30;1.20;;;;;;;13.25;51.02;103282.84;4972033;28;100983;-35
2022/04/28 08:16:59;;;;;;;4.65;1.52;;;;;;;13.26;51.36;103279.19;4973489;28;98133;-35
2022/04/28 08:19:24;;;;;;;3.53;1.48;;;;;;;13.38;51.50;103276.97;4972293;28;96724;-35
2022/04/28 08:21:50;;;;;;;4.50;1.45;;;;;;;13.49;51.25;103270.25;4972823;28;118850;-34
2022/04/28 08:24:16;;;;;;;2.85;1.15;;;;;;;13.78;50.81;103282.84;4971766;28;100879;-35
2022/04/28 08:26:42;;;;;;;2.83;1.48;;;;;;;13.85;50.26;103278.97;4972206;28;101572;-35
2022/04/28 08:29:07;;;;;;;3.72;1.33;;;;;;;13.94;50.38;103262.28;4972091;28;97132;-35
2022/04/28 08:31:34;;;;;;;3.30;1.15;;;;;;;14.08;49.09;103274.50;4973176;28;96963;-35
2022/04/28 08:33:59;;;;;;;2.03;1.27;;;;;;;14.01;50.13;103263.84;4971339;28;101363;-35
2022/04/28 08:36:25;;;;;;;2.42;1.25;;;;;;;14.17;49.34;103271.44;4972946;28;99323;-35
2022/04/28 08:38:50;;;;;;;4.93;1.63;;;;;;;14.31;49.56;103274.50;4972981;28;96652;-35
2022/04/28 08:41:33;;;;;;;2.65;1.30;;;;;;;14.14;47.61;103269.69;4973266;28;96806;-35
2022/04/28 08:44:01;;;;;;;2.08;1.25;;;;;;;14.21;49.74;103262.19;4972925;28;98810;-35
2022/04/28 08:49:12;;;;;;;3.45;1.30;;;;;;;14.52;48.06;103264.63;4972796;28;96888;-35
2022/04/28 08:51:38;;;;;;;4.22;1.63;;;;;;;14.59;48.88;103254.38;4973602;28;97081;-35
2022/04/28 08:54:04;;;;;;;3.28;1.80;;;;;;;14.62;48.40;103262.44;4971280;28;101684;-35
2022/04/28 08:56:30;;;;;;;2.75;1.73;;;;;;;14.74;48.13;103259.22;4971547;28;100760;-35
2022/04/28 08:58:55;;;;;;;3.72;1.88;;;;;;;14.78;47.97;103266.34;4972657;28;96604;-35
2022/04/28 09:01:25;;;;;;;3.90;1.70;;;;;;;14.92;46.95;103267.59;4971990;28;122472;-35
2022/04/28 09:03:51;;;;;;;3.72;1.42;;;;;;;14.96;46.97;103263.78;4971347;28;100925;-35
2022/04/28 09:06:18;;;;;;;5.85;1.73;;;;;;;14.99;46.86;103263.66;4971246;28;99954;-35
2022/04/28 09:08:44;;;;;;;3.03;1.60;;;;;;;15.00;46.64;103265.44;4971221;28;96883;-35
2022/04/28 09:11:25;;;;;;;2.03;1.38;;;;;;;15.09;46.93;103262.34;4972204;28;96597;-35
2022/04/28 09:14:09;;;;;;;2.22;1.40;;;;;;;15.11;46.39;103265.00;4971155;28;101104;-35
2022/04/28 09:16:56;;;;;;;4.55;1.92;;;;;;;15.32;46.90;103255.00;4973011;28;97973;-35
2022/04/28 09:19:36;;;;;;;2.72;1.60;;;;;;;15.42;46.15;103254.56;4971279;28;96774;-35
2022/04/28 09:22:10;;;;;;;2.60;1.58;;;;;;;15.47;45.96;103255.25;4971397;28;96724;-35
2022/04/28 09:24:37;;;;;;;3.40;1.27;;;;;;;15.38;45.28;103246.56;4970580;28;101577;-35
2022/04/28 09:27:03;;;;;;;3.78;1.70;;;;;;;15.59;45.93;103231.97;4971027;28;101292;-35
2022/04/28 09:29:30;;;;;;;3.30;1.67;;;;;;;15.79;45.31;103250.22;4971131;28;96799;-34
2022/04/28 09:31:56;;;;;;;5.28;2.30;;;;;;;15.88;45.56;103233.41;4971093;28;97717;-35
2022/04/28 09:34:23;;;;;;;3.67;1.70;;;;;;;16.05;45.08;103246.28;4970814;28;101231;-35
2022/04/28 09:36:49;;;;;;;4.90;2.10;;;;;;;16.06;44.98;103241.69;4972282;28;99177;-35
2022/04/28 09:42:29;;;;;;;2.80;1.63;;;;;;;16.04;45.43;103233.59;4971062;28;96602;-35
2022/04/28 09:44:51;;;;;;;7.50;2.17;;;;;;;16.10;44.36;103243.34;4972496;28;97150;-35
2022/04/28 09:47:21;;;;;;;4.43;2.13;;;;;;;16.13;44.75;103244.06;4970986;28;101043;-35
2022/04/28 09:49:55;;;;;;;2.92;1.58;;;;;;;16.14;44.73;103234.94;4970564;28;96918;-35
2022/04/28 09:52:30;;;;;;;4.53;1.45;;;;;;;16.40;44.67;103241.00;4972637;28;96512;-35
2022/04/28 09:54:59;;;;;;;2.83;1.63;;;;;;;16.47;44.12;103222.44;4970775;28;101037;-35
2022/04/28 09:57:25;;;;;;;2.83;1.83;;;;;;;16.75;44.69;103241.13;4970662;28;100818;-35
2022/04/28 09:59:55;;;;;;;4.03;1.98;;;;;;;16.70;43.05;103238.63;4970812;28;96697;-35
2022/04/28 10:02:22;;;;;;;3.20;1.85;;;;;;;16.74;43.80;103244.84;4974932;28;96840;-35
2022/04/28 10:04:49;;;;;;;3.60;1.88;;;;;;;16.88;43.95;103236.88;4974141;28;100893;-35
2022/04/28 10:07:15;;;;;;;3.42;1.70;;;;;;;16.96;43.29;103231.00;4974062;28;100729;-35
2022/04/28 10:09:50;;;;;;;4.13;1.63;;;;;;;16.96;43.10;103234.63;4974268;28;96646;-35
2022/04/28 10:12:21;;;;;;;5.03;1.52;;;;;;;17.17;42.92;103234.50;4975337;28;96896;-35
2022/04/28 10:14:48;;;;;;;4.45;1.50;;;;;;;17.21;41.91;103238.88;4973548;28;100930;-35
2022/04/28 10:17:19;;;;;;;2.92;1.73;;;;;;;17.26;41.93;103241.38;4973967;28;101090;-35
2022/04/28 10:19:56;;;;;;;6.38;1.70;;;;;;;17.13;42.32;103232.88;4974147;28;96720;-35
2022/04/28 10:22:29;;;;;;;4.95;1.85;;;;;;;17.06;42.57;103231.41;4974233;28;96750;-33
2022/04/28 10:33:21;;;;;;;4.07;1.95;;;;;;;17.31;42.53;103242.00;4976085;28;96601;-36
2022/04/28 10:35:53;;;;;;;3.20;1.67;;;;;;;17.14;41.62;103243.75;4975131;28;97943;-35
2022/04/28 10:38:22;;;;;;;3.47;1.50;;;;;;;17.30;42.25;103238.38;4973725;28;100439;-35
2022/04/28 10:41:06;;;;;;;4.70;2.40;;;;;;;17.42;41.50;103242.31;4974486;28;96473;-35
2022/04/28 10:43:32;;;;;;;4.03;1.63;;;;;;;17.53;41.22;103247.25;4974841;28;96849;-35
2022/04/28 10:46:22;;;;;;;2.67;1.67;;;;;;;17.62;41.46;103228.47;4974340;28;109942;-35
2022/04/28 10:48:52;;;;;;;3.72;1.63;;;;;;;17.89;41.42;103240.81;4973784;28;97823;-35
2022/04/28 10:51:29;;;;;;;3.38;1.48;;;;;;;17.97;39.90;103236.69;4975053;28;96641;-35
2022/04/28 10:54:02;;;;;;;2.42;1.58;;;;;;;18.17;40.89;103238.31;4975054;28;96786;-35
2022/04/28 10:56:50;;;;;;;7.80;2.13;;;;;;;18.02;40.16;103225.47;4973363;28;100936;-35
2022/04/28 10:59:29;;;;;;;2.78;1.73;;;;;;;18.04;40.16;103239.94;4977518;28;97951;-35
2022/04/28 11:01:55;;;;;;;5.72;2.22;;;;;;;18.06;41.20;103240.75;4974697;28;96616;-35
2022/04/28 11:04:22;;;;;;;3.45;2.22;;;;;;;18.19;39.29;103219.03;4973343;28;96802;-36
2022/04/28 11:06:58;;;;;;;4.43;1.65;;;;;;;18.11;39.77;103246.88;4972565;28;101150;-35
2022/04/28 11:09:35;;;;;;;4.68;2.05;;;;;;;17.98;40.07;103241.19;4973106;28;101035;-35
2022/04/28 11:12:33;;;;;;;3.90;1.95;;;;;;;18.31;39.21;103236.69;4972420;28;96894;-35
2022/04/28 11:15:02;;;;;;;5.22;1.80;;;;;;;18.50;40.62;103239.25;4972989;28;96900;-35
2022/04/28 11:17:30;;;;;;;5.45;2.10;;;;;;;18.59;39.68;103228.66;4973020;28;101158;-35
2022/04/28 11:20:00;;;;;;;8.05;2.30;;;;;;;18.64;39.77;103221.03;4973136;28;97970;-35
2022/04/28 11:22:27;;;;;;;6.03;2.03;;;;;;;18.68;39.23;103218.97;4973293;28;96756;-35
2022/04/28 11:24:53;;;;;;;4.97;2.13;;;;;;;18.58;39.49;103224.09;4957180;28;96487;-35
2022/04/28 11:27:20;;;;;;;4.75;2.08;;;;;;;18.83;39.25;103234.59;4973996;28;99341;-35
2022/04/28 11:29:46;;;;;;;10.18;2.17;;;;;;;18.78;39.17;103225.75;4974047;28;97763;-33
2022/04/28 11:32:14;;;;;;;5.82;1.92;;;;;;;18.71;39.09;103218.81;4972539;28;96567;-34
2022/04/28 11:34:41;;;;;;;3.35;1.38;;;;;;;18.70;39.34;103218.88;4972682;28;96924;-33
2022/04/28 11:37:14;;;;;;;4.45;2.13;;;;;;;18.72;38.79;103214.19;4973933;28;99742;-33
2022/04/28 11:39:43;;;;;;;3.20;1.98;;;;;;;18.72;38.57;103217.81;4973840;28;99266;-33
2022/04/28 11:42:13;;;;;;;2.88;1.52;;;;;;;18.60;39.33;103215.78;4974086;28;96863;-33
2022/04/28 11:44:52;;;;;;;3.95;1.92;;;;;;;18.58;38.27;103213.13;4974202;28;96785;-33
2022/04/28 11:47:19;;;;;;;3.33;2.13;;;;;;;18.58;37.66;103213.13;4972550;28;100982;-33
2022/04/28 11:49:45;;;;;;;4.15;2.05;;;;;;;18.44;38.60;103202.06;4972964;28;100658;-34
2022/04/28 11:52:21;;;;;;;3.40;1.95;;;;;;;18.48;39.55;103200.03;4974059;28;96531;-33
2022/04/28 11:54:51;;;;;;;5.05;1.95;;;;;;;18.50;37.75;103198.97;4972500;28;96931;-33
2022/04/28 11:57:17;;;;;;;11.13;2.42;;;;;;;18.49;38.57;103207.28;4972201;28;100930;-33
2022/04/28 11:59:43;;;;;;;4.93;2.28;;;;;;;18.42;38.89;103204.91;4972441;28;101217;-33